Time;durP1;ratioP1;P1;durP2;ratioP2;P2;SDS_P1;SDS_P2;PMS_P1;PMS_P2;Temp;Humidity;BMP_temperature;BMP_pressure;BME280_temperature;BME280_humidity;BME280_pressure;Samples;Min_cycle;Max_cycle;Signal;HPM_P1;HPM_P2
2022/09/21 00:01:24;;;;;;;;;;;;;;;11.86;63.80;102187.03;4757348;29;119802;-71
2022/09/21 00:03:54;;;;;;;;;;;;;;;11.84;63.28;102192.94;4755467;29;120093;-71
2022/09/21 00:06:20;;;;;;;;;;;;;;;11.83;63.31;102194.13;4757900;29;119659;-72
2022/09/21 00:08:46;;;;;;;;;;;;;;;11.82;63.77;102194.53;4746041;29;120058;-71
2022/09/21 00:11:17;;;;;;;;;;;;;;;11.80;63.90;102194.97;4733351;29;119977;-71
2022/09/21 00:13:45;;;;;;;;;;;;;;;11.79;63.60;102192.63;4743507;29;119741;-71
2022/09/21 00:16:11;;;;;;;;;;;;;;;11.76;63.80;102196.97;4761596;29;119689;-71
2022/09/21 00:18:37;;;;;;;;;;;;;;;11.74;63.60;102201.34;4745779;29;119845;-71
2022/09/21 00:21:06;;;;;;;;;;;;;;;11.71;63.89;102197.47;4744122;29;120106;-71
2022/09/21 00:23:33;;;;;;;;;;;;;;;11.71;63.73;102193.94;4760262;29;119845;-71
2022/09/21 00:26:05;;;;;;;;;;;;;;;11.70;63.99;102195.91;4745500;29;120045;-71
2022/09/21 00:28:31;;;;;;;;;;;;;;;11.69;64.17;102199.88;4763630;29;119794;-72
2022/09/21 00:31:03;;;;;;;;;;;;;;;11.69;63.94;102206.13;4754953;29;120017;-71
2022/09/21 00:33:29;;;;;;;;;;;;;;;11.68;63.91;102193.59;4754942;29;119542;-71
2022/09/21 00:35:55;;;;;;;;;;;;;;;11.68;63.73;102201.06;4739285;29;119974;-71
2022/09/21 00:38:20;;;;;;;;;;;;;;;11.64;63.49;102198.38;4756602;29;120220;-71
2022/09/21 00:40:46;;;;;;;;;;;;;;;11.63;63.69;102196.84;4753445;29;120105;-71
2022/09/21 00:43:13;;;;;;;;;;;;;;;11.62;63.49;102197.25;4757232;29;119525;-71
2022/09/21 00:45:39;;;;;;;;;;;;;;;11.60;63.83;102197.69;4747664;29;120440;-71
2022/09/21 00:48:04;;;;;;;;;;;;;;;11.60;63.83;102203.19;4757568;29;119760;-71
2022/09/21 00:50:31;;;;;;;;;;;;;;;11.59;63.89;102195.31;4752088;29;119340;-71
2022/09/21 00:52:57;;;;;;;;;;;;;;;11.57;63.99;102198.50;4743312;29;119510;-71
2022/09/21 00:55:25;;;;;;;;;;;;;;;11.55;64.03;102195.38;4758114;29;119664;-71
2022/09/21 00:57:53;;;;;;;;;;;;;;;11.54;63.95;102199.34;4760811;29;119688;-71
2022/09/21 01:00:19;;;;;;;;;;;;;;;11.53;64.02;102191.50;4756787;29;119582;-71
2022/09/21 01:02:45;;;;;;;;;;;;;;;11.53;64.23;102200.53;4756677;29;122166;-71
2022/09/21 01:05:11;;;;;;;;;;;;;;;11.53;64.15;102197.78;4754476;29;119586;-71
2022/09/21 01:07:38;;;;;;;;;;;;;;;11.52;64.54;102201.72;4726992;29;119531;-71
2022/09/21 01:10:09;;;;;;;;;;;;;;;11.53;64.20;102202.50;4757063;29;119624;-71
2022/09/21 01:13:03;;;;;;;;;;;;;;;11.52;63.92;102204.47;4756995;29;119928;-71
2022/09/21 01:15:49;;;;;;;;;;;;;;;11.49;63.84;102210.03;4757107;29;119727;-70
2022/09/21 01:18:28;;;;;;;;;;;;;;;11.46;63.91;102208.91;4757769;29;120197;-71
2022/09/21 01:20:53;;;;;;;;;;;;;;;11.43;63.86;102209.75;4760310;29;119598;-71
2022/09/21 01:23:22;;;;;;;;;;;;;;;11.42;64.03;102219.19;4756876;29;119574;-70
2022/09/21 01:25:51;;;;;;;;;;;;;;;11.41;64.06;102209.41;4741720;29;120203;-71
2022/09/21 01:28:42;;;;;;;;;;;;;;;11.42;64.07;102210.19;4757045;29;120409;-71
2022/09/21 01:31:13;;;;;;;;;;;;;;;11.41;64.02;102212.16;4732281;29;122684;-71
2022/09/21 01:33:41;;;;;;;;;;;;;;;11.39;64.12;102206.28;4742012;29;119870;-71
2022/09/21 01:36:15;;;;;;;;;;;;;;;11.38;63.87;102210.25;4751146;29;119654;-71
2022/09/21 01:39:06;;;;;;;;;;;;;;;11.33;63.84;102210.69;4750937;29;120072;-71
2022/09/21 01:41:34;;;;;;;;;;;;;;;11.30;63.70;102215.06;4757360;29;119846;-71
2022/09/21 01:44:07;;;;;;;;;;;;;;;11.27;63.62;102210.41;4744089;29;119927;-71
2022/09/21 01:46:34;;;;;;;;;;;;;;;11.24;63.94;102207.72;4741248;29;119857;-71
2022/09/21 01:49:04;;;;;;;;;;;;;;;11.23;63.83;102212.44;4757696;29;119674;-71
2022/09/21 01:51:31;;;;;;;;;;;;;;;11.22;63.91;102210.88;4737704;29;121669;-71
2022/09/21 01:54:00;;;;;;;;;;;;;;;11.21;63.75;102214.81;4757099;29;119821;-71
2022/09/21 01:56:29;;;;;;;;;;;;;;;11.19;64.01;102211.72;4756205;29;120991;-71
2022/09/21 01:59:16;;;;;;;;;;;;;;;11.16;63.45;102207.06;4740918;29;121540;-71
2022/09/21 02:01:48;;;;;;;;;;;;;;;11.14;63.68;102211.44;4757513;29;119332;-71
2022/09/21 02:04:13;;;;;;;;;;;;;;;11.11;63.59;102213.00;4741647;29;120796;-71
2022/09/21 02:06:40;;;;;;;;;;;;;;;11.10;63.58;102216.19;4755980;29;119289;-71
2022/09/21 02:09:07;;;;;;;;;;;;;;;11.07;63.45;102215.81;4755064;29;119495;-71
2022/09/21 02:11:33;;;;;;;;;;;;;;;11.05;63.62;102215.47;4755998;29;120133;-71
2022/09/21 02:13:59;;;;;;;;;;;;;;;11.02;63.44;102213.56;4741522;29;120347;-71
2022/09/21 02:16:24;;;;;;;;;;;;;;;11.01;63.69;102211.22;4781377;29;119968;-71
2022/09/21 02:19:10;;;;;;;;;;;;;;;11.01;63.86;102208.47;4810462;29;120225;-71
2022/09/21 02:21:41;;;;;;;;;;;;;;;11.01;63.89;102217.50;4813713;29;120009;-71
2022/09/21 02:24:25;;;;;;;;;;;;;;;11.01;63.90;102213.97;4822597;29;118785;-71
2022/09/21 02:27:01;;;;;;;;;;;;;;;10.98;63.87;102217.53;4793577;29;122760;-71
2022/09/21 02:29:45;;;;;;;;;;;;;;;10.95;63.72;102216.41;4808427;29;119567;-71
2022/09/21 02:32:14;;;;;;;;;;;;;;;10.92;63.69;102213.72;4808859;29;119754;-71
2022/09/21 02:35:03;;;;;;;;;;;;;;;10.90;63.79;102221.59;4785405;29;119756;-71
2022/09/21 02:37:31;;;;;;;;;;;;;;;10.89;63.47;102211.81;4813861;29;119606;-70
2022/09/21 02:40:00;;;;;;;;;;;;;;;10.87;63.27;102205.94;4815077;29;119903;-71
2022/09/21 02:42:27;;;;;;;;;;;;;;;10.85;63.63;102214.59;4829309;29;120007;-71
2022/09/21 02:44:56;;;;;;;;;;;;;;;10.86;63.78;102209.88;4815490;29;119842;-71
2022/09/21 02:47:26;;;;;;;;;;;;;;;10.83;63.25;102206.00;4801505;29;119893;-71
2022/09/21 02:49:53;;;;;;;;;;;;;;;10.83;63.60;102219.72;4819345;29;119909;-71
2022/09/21 02:52:20;;;;;;;;;;;;;;;10.82;63.57;102215.41;4813927;29;120811;-71
2022/09/21 02:54:48;;;;;;;;;;;;;;;10.81;63.77;102226.81;4810497;29;120006;-71
2022/09/21 02:57:15;;;;;;;;;;;;;;;10.80;63.68;102226.03;4815154;29;120606;-71
2022/09/21 02:59:46;;;;;;;;;;;;;;;10.78;63.46;102217.44;4815186;29;119400;-71
2022/09/21 03:02:11;;;;;;;;;;;;;;;10.77;63.68;102227.66;4816952;29;119625;-71
2022/09/21 03:04:42;;;;;;;;;;;;;;;10.75;63.51;102227.28;4799490;29;120396;-70
2022/09/21 03:07:08;;;;;;;;;;;;;;;10.73;63.48;102217.91;4815715;29;120622;-71
2022/09/21 03:09:34;;;;;;;;;;;;;;;10.71;63.45;102214.81;4816326;29;119463;-71
2022/09/21 03:11:59;;;;;;;;;;;;;;;10.69;63.71;102215.22;4818817;29;119616;-71
2022/09/21 03:14:25;;;;;;;;;;;;;;;10.69;63.78;102223.47;4817332;29;119240;-71
2022/09/21 03:16:50;;;;;;;;;;;;;;;10.68;63.49;102221.13;4816732;29;119607;-71
2022/09/21 03:19:16;;;;;;;;;;;;;;;10.67;63.82;102222.31;4815453;29;119844;-70
2022/09/21 03:21:42;;;;;;;;;;;;;;;10.66;63.83;102227.03;4816637;29;119485;-71
2022/09/21 03:24:07;;;;;;;;;;;;;;;10.66;63.55;102226.25;4815524;29;118983;-71
2022/09/21 03:26:33;;;;;;;;;;;;;;;10.63;63.43;102224.31;4813530;29;120575;-71
2022/09/21 03:29:19;;;;;;;;;;;;;;;10.61;63.49;102221.22;4815226;29;119350;-71
2022/09/21 03:31:54;;;;;;;;;;;;;;;10.59;63.22;102231.81;4829420;29;119350;-71
2022/09/21 03:34:20;;;;;;;;;;;;;;;10.58;63.43;102224.78;4819497;29;119746;-71
2022/09/21 03:36:47;;;;;;;;;;;;;;;10.57;63.64;102234.19;4799130;29;119421;-70
2022/09/21 03:39:12;;;;;;;;;;;;;;;10.56;63.41;102236.16;4808834;29;120605;-70
2022/09/21 03:41:38;;;;;;;;;;;;;;;10.56;63.96;102229.91;4797583;29;119444;-71
2022/09/21 03:44:04;;;;;;;;;;;;;;;10.56;63.95;102230.69;4813700;29;119238;-71
2022/09/21 03:46:29;;;;;;;;;;;;;;;10.56;63.91;102224.41;4816059;29;119587;-70
2022/09/21 03:48:55;;;;;;;;;;;;;;;10.57;63.54;102231.47;4816521;29;119618;-71
2022/09/21 03:51:21;;;;;;;;;;;;;;;10.57;63.59;102225.97;4815710;29;119467;-71
2022/09/21 03:53:46;;;;;;;;;;;;;;;10.55;63.58;102226.38;4813271;29;120063;-71
2022/09/21 03:56:12;;;;;;;;;;;;;;;10.52;63.62;102231.94;4815566;29;119407;-71
2022/09/21 03:58:37;;;;;;;;;;;;;;;10.49;63.33;102232.75;4814760;29;120575;-70
2022/09/21 04:01:03;;;;;;;;;;;;;;;10.47;63.41;102230.41;4816996;29;120125;-71
2022/09/21 04:03:29;;;;;;;;;;;;;;;10.44;63.04;102236.72;4814511;29;119933;-70
2022/09/21 04:05:54;;;;;;;;;;;;;;;10.43;63.36;102233.22;4809809;29;120715;-71
2022/09/21 04:08:20;;;;;;;;;;;;;;;10.42;63.50;102234.41;4816526;29;119729;-71
2022/09/21 04:10:45;;;;;;;;;;;;;;;10.41;63.47;102235.59;4815204;29;119608;-71
2022/09/21 04:13:12;;;;;;;;;;;;;;;10.42;63.43;102236.38;4816372;29;119793;-71
2022/09/21 04:15:38;;;;;;;;;;;;;;;10.42;63.83;102234.41;4812917;29;119846;-71
2022/09/21 04:18:04;;;;;;;;;;;;;;;10.42;63.63;102231.66;4816488;29;120378;-70
2022/09/21 04:20:30;;;;;;;;;;;;;;;10.42;63.76;102228.13;4815135;29;119201;-71
2022/09/21 04:22:56;;;;;;;;;;;;;;;10.40;63.88;102227.75;4810137;29;119762;-71
2022/09/21 04:25:24;;;;;;;;;;;;;;;10.39;63.82;102229.72;4815387;29;119377;-71
2022/09/21 04:27:51;;;;;;;;;;;;;;;10.39;64.04;102229.72;4812388;29;119984;-71
2022/09/21 04:30:16;;;;;;;;;;;;;;;10.38;63.68;102230.91;4816289;29;120239;-71
2022/09/21 04:32:42;;;;;;;;;;;;;;;10.38;63.68;102228.16;4814422;29;119733;-70
2022/09/21 04:35:08;;;;;;;;;;;;;;;10.38;63.87;102233.66;4815590;29;119177;-71
2022/09/21 04:37:33;;;;;;;;;;;;;;;10.36;63.67;102227.78;4811536;29;120168;-71
2022/09/21 04:39:59;;;;;;;;;;;;;;;10.34;63.31;102232.91;4817370;29;118832;-71
2022/09/21 04:42:26;;;;;;;;;;;;;;;10.32;63.60;102229.81;4816150;29;119693;-70
2022/09/21 04:44:51;;;;;;;;;;;;;;;10.32;63.60;102220.81;4814037;29;120772;-71
2022/09/21 04:47:18;;;;;;;;;;;;;;;10.32;63.65;102224.31;4812036;29;119894;-70
2022/09/21 04:49:43;;;;;;;;;;;;;;;10.33;63.59;102217.66;4813977;29;119861;-70
2022/09/21 04:52:09;;;;;;;;;;;;;;;10.32;63.17;102220.81;4796748;29;121839;-70
2022/09/21 04:54:34;;;;;;;;;;;;;;;10.31;63.33;102220.03;4798612;29;119704;-70
2022/09/21 04:57:00;;;;;;;;;;;;;;;10.29;63.38;102216.16;4812754;29;119443;-70
2022/09/21 04:59:26;;;;;;;;;;;;;;;10.29;63.54;102216.16;4818512;29;120883;-70
2022/09/21 05:01:51;;;;;;;;;;;;;;;10.28;63.41;102220.84;4814164;29;119311;-70
2022/09/21 05:04:17;;;;;;;;;;;;;;;10.27;63.70;102219.31;4811229;29;119822;-71
2022/09/21 05:06:42;;;;;;;;;;;;;;;10.27;63.69;102224.78;4815002;29;119549;-70
2022/09/21 05:11:53;;;;;;;;;;;;;;;10.28;63.42;102231.81;4807503;29;119601;-70
2022/09/21 05:14:18;;;;;;;;;;;;;;;10.29;63.61;102233.38;4815309;29;119334;-70
2022/09/21 05:16:46;;;;;;;;;;;;;;;10.31;64.08;102230.22;4795468;29;120539;-70
2022/09/21 05:19:12;;;;;;;;;;;;;;;10.32;63.58;102240.00;4814122;29;119809;-70
2022/09/21 05:21:37;;;;;;;;;;;;;;;10.34;63.42;102237.63;4819122;29;120071;-70
2022/09/21 05:24:03;;;;;;;;;;;;;;;10.35;63.02;102241.94;4814605;29;119622;-70
2022/09/21 05:26:29;;;;;;;;;;;;;;;10.36;63.84;102238.00;4798838;29;119426;-70
2022/09/21 05:28:54;;;;;;;;;;;;;;;10.36;63.55;102241.50;4808640;29;119637;-71
2022/09/21 05:31:30;;;;;;;;;;;;;;;10.37;63.42;102245.81;4825048;29;119283;-70
2022/09/21 05:34:13;;;;;;;;;;;;;;;10.40;63.75;102244.97;4816966;29;119827;-70
2022/09/21 05:37:08;;;;;;;;;;;;;;;10.44;63.64;102245.75;4802353;29;120750;-70
2022/09/21 05:40:00;;;;;;;;;;;;;;;10.48;63.89;102247.66;4789279;29;119989;-70
2022/09/21 05:42:26;;;;;;;;;;;;;;;10.51;63.89;102247.59;4812068;29;120192;-70
2022/09/21 05:44:52;;;;;;;;;;;;;;;10.54;63.63;102260.50;4815453;29;119368;-70
2022/09/21 05:47:17;;;;;;;;;;;;;;;10.57;63.84;102250.66;4813457;29;119704;-71
2022/09/21 05:49:46;;;;;;;;;;;;;;;10.60;64.19;102258.84;4813415;29;119733;-73
2022/09/21 05:52:30;;;;;;;;;;;;;;;10.65;63.76;102257.63;4791715;29;120727;-73
2022/09/21 05:55:02;;;;;;;;;;;;;;;10.69;63.57;102256.41;4781965;29;119745;-71
2022/09/21 05:57:28;;;;;;;;;;;;;;;10.72;63.74;102254.78;4813267;29;119772;-70
2022/09/21 06:00:12;;;;;;;;;;;;;;;10.75;63.60;102259.44;4817790;29;120094;-70
2022/09/21 06:02:56;;;;;;;;;;;;;;;10.80;63.75;102267.22;4789478;29;119827;-72
2022/09/21 06:05:22;;;;;;;;;;;;;;;10.85;64.09;102269.50;4818448;29;119771;-72
2022/09/21 06:07:48;;;;;;;;;;;;;;;10.92;63.90;102265.88;4824765;29;119209;-71
2022/09/21 06:10:14;;;;;;;;;;;;;;;10.89;64.30;102256.50;4818693;29;119969;-72
2022/09/21 06:12:40;;;;;;;;;;;;;;;11.04;64.66;102266.09;4817205;29;120091;-72
2022/09/21 06:15:06;;;;;;;;;;;;;;;11.11;64.01;102275.41;4818372;29;119985;-70
2022/09/21 06:17:32;;;;;;;;;;;;;;;11.19;64.42;102276.88;4833705;28;119976;-73
2022/09/21 06:19:58;;;;;;;;;;;;;;;11.25;64.50;102277.94;4818877;29;120893;-73
2022/09/21 06:22:23;;;;;;;;;;;;;;;11.33;64.60;102277.41;4817182;29;119547;-72
2022/09/21 06:24:49;;;;;;;;;;;;;;;11.38;64.59;102274.22;4821111;29;119670;-72
2022/09/21 06:27:14;;;;;;;;;;;;;;;11.45;64.74;102278.81;4816495;29;120745;-73
2022/09/21 06:29:40;;;;;;;;;;;;;;;11.53;64.65;102276.72;4824456;29;119571;-74
2022/09/21 06:32:05;;;;;;;;;;;;;;;11.61;64.88;102281.69;4798308;29;122387;-72
2022/09/21 06:34:31;;;;;;;;;;;;;;;11.71;65.06;102279.16;4816867;29;119969;-74
2022/09/21 06:36:59;;;;;;;;;;;;;;;11.80;65.13;102271.94;4816861;29;119982;-74
2022/09/21 06:39:25;;;;;;;;;;;;;;;11.88;65.33;102276.13;4815005;29;119798;-74
2022/09/21 06:41:52;;;;;;;;;;;;;;;11.98;65.48;102275.16;4801155;29;119655;-73
2022/09/21 06:44:18;;;;;;;;;;;;;;;12.08;65.37;102276.16;4818714;28;119283;-74
2022/09/21 06:46:43;;;;;;;;;;;;;;;12.16;65.76;102282.31;4811870;29;119940;-72
2022/09/21 06:49:09;;;;;;;;;;;;;;;12.25;65.83;102285.25;4808430;29;119621;-72
2022/09/21 06:51:35;;;;;;;;;;;;;;;12.35;65.75;102283.50;4816198;29;119625;-72
2022/09/21 06:54:01;;;;;;;;;;;;;;;12.44;65.93;102286.47;4811386;29;119696;-68
2022/09/21 06:56:26;;;;;;;;;;;;;;;12.53;66.06;102275.66;4816824;29;119476;-68
2022/09/21 06:58:52;;;;;;;;;;;;;;;12.64;66.21;102287.22;4808740;29;120457;-68
2022/09/21 07:01:18;;;;;;;;;;;;;;;12.75;66.60;102285.00;4811652;29;119857;-68
2022/09/21 07:03:47;;;;;;;;;;;;;;;12.89;66.78;102290.22;4819422;29;119908;-69
2022/09/21 07:06:14;;;;;;;;;;;;;;;13.05;67.09;102288.72;4812247;29;120105;-69
2022/09/21 07:08:41;;;;;;;;;;;;;;;13.20;66.87;102289.94;4816303;29;119761;-68
2022/09/21 07:11:06;;;;;;;;;;;;;;;13.34;67.66;102289.63;4815030;29;119914;-69
2022/09/21 07:13:34;;;;;;;;;;;;;;;13.50;67.37;102289.63;4810941;29;120171;-68
2022/09/21 07:16:06;;;;;;;;;;;;;;;13.64;67.52;102284.94;4809094;29;119976;-68
2022/09/21 07:18:38;;;;;;;;;;;;;;;13.79;67.85;102286.16;4813197;29;119855;-69
2022/09/21 07:21:08;;;;;;;;;;;;;;;13.92;67.92;102286.19;4809416;29;119782;-69
2022/09/21 07:23:34;;;;;;;;;;;;;;;14.04;67.58;102277.97;4811361;29;120136;-69
2022/09/21 07:26:00;;;;;;;;;;;;;;;14.18;67.61;102281.56;4809878;29;120454;-68
2022/09/21 07:28:26;;;;;;;;;;;;;;;14.29;67.71;102291.09;4811427;29;120237;-68
2022/09/21 07:30:56;;;;;;;;;;;;;;;14.41;67.69;102293.09;4802289;29;119640;-68
2022/09/21 07:33:22;;;;;;;;;;;;;;;14.52;68.13;102290.09;4796681;29;123429;-69
2022/09/21 07:35:52;;;;;;;;;;;;;;;14.63;67.60;102298.03;4811176;29;121336;-69
2022/09/21 07:38:17;;;;;;;;;;;;;;;14.72;67.59;102300.94;4810226;29;119983;-69
2022/09/21 07:40:43;;;;;;;;;;;;;;;14.82;68.03;102299.84;4816514;29;119682;-69
2022/09/21 07:43:08;;;;;;;;;;;;;;;14.93;67.76;102294.00;4824270;29;120438;-69
2022/09/21 07:45:34;;;;;;;;;;;;;;;15.02;67.59;102300.41;4814945;29;119923;-68
2022/09/21 07:48:07;;;;;;;;;;;;;;;15.11;67.01;102299.75;4821178;29;120212;-69
2022/09/21 07:50:33;;;;;;;;;;;;;;;15.20;67.49;102299.88;4810475;29;120631;-69
2022/09/21 07:53:02;;;;;;;;;;;;;;;15.28;67.22;102301.19;4823508;29;119800;-69
2022/09/21 07:55:28;;;;;;;;;;;;;;;15.38;66.97;102298.50;4815384;29;120318;-69
2022/09/21 08:01:15;;;;;;;;;;;;;;;15.66;66.70;102308.69;4774639;29;119908;-69
2022/09/21 08:03:41;;;;;;;;;;;;;;;15.80;66.88;102308.19;4777056;29;120067;-69
2022/09/21 08:06:08;;;;;;;;;;;;;;;15.98;66.81;102313.13;4775104;29;120187;-67
2022/09/21 08:08:34;;;;;;;;;;;;;;;16.15;66.44;102310.97;4776034;29;120173;-68
2022/09/21 08:11:05;;;;;;;;;;;;;;;16.33;66.20;102307.56;4759059;29;121041;-69
2022/09/21 08:13:31;;;;;;;;;;;;;;;16.51;66.00;102313.97;4773934;29;120051;-68
2022/09/21 08:16:00;;;;;;;;;;;;;;;16.67;65.32;102306.72;4775781;29;119421;-67
2022/09/21 08:18:26;;;;;;;;;;;;;;;16.84;64.73;102302.50;4779099;29;120287;-68
2022/09/21 08:20:58;;;;;;;;;;;;;;;16.98;64.32;102309.47;4763684;29;120181;-69
2022/09/21 08:23:50;;;;;;;;;;;;;;;17.11;63.72;102305.38;4770880;29;121089;-69
2022/09/21 08:26:20;;;;;;;;;;;;;;;17.23;63.34;102302.94;4771065;29;120067;-69
2022/09/21 08:28:50;;;;;;;;;;;;;;;17.35;63.18;102304.84;4772689;29;120094;-69
2022/09/21 08:31:22;;;;;;;59.70;4.10;;;;;;;17.42;64.19;102293.44;4763166;29;120196;-71
2022/09/21 08:33:51;;;;;;;89.00;4.45;;;;;;;17.56;63.53;102301.19;4805321;29;120342;-71
2022/09/21 08:36:18;;;;;;;45.72;3.67;;;;;;;17.66;63.63;102307.53;4810190;29;120165;-71
2022/09/21 08:38:47;;;;;;;59.47;4.15;;;;;;;17.75;63.55;102308.34;4805817;29;121495;-71
2022/09/21 08:41:19;;;;;;;;;;;;;;;17.83;62.41;102310.81;4828530;29;122305;-71
2022/09/21 08:43:49;;;;;;;;;;;;;;;17.91;61.41;102307.25;4794239;29;120952;-72
2022/09/21 08:46:19;;;;;;;;;;;;;;;17.99;60.55;102311.28;4799148;29;121101;-71
2022/09/21 08:48:53;;;;;;;;;;;;;;;18.07;60.27;102306.19;4809020;29;120407;-71
2022/09/21 08:51:24;;;;;;;;;;;;;;;18.12;59.74;102311.13;4809219;29;120072;-71
2022/09/21 08:53:52;;;;;;;;;;;;;;;18.18;59.70;102314.81;4807079;29;122182;-72
2022/09/21 08:56:19;;;;;;;;;;;;;;;18.26;59.82;102310.50;4811838;29;120077;-71
2022/09/21 08:58:44;;;;;;;;;;;;;;;18.33;59.49;102312.97;4808934;29;119996;-71
2022/09/21 09:01:26;;;;;;;;;;;;;;;18.39;59.59;102313.88;4811237;29;121600;-71
2022/09/21 09:03:51;;;;;;;;;;;;;;;18.47;59.19;102302.44;4808110;29;120038;-71
2022/09/21 09:06:17;;;;;;;;;;;;;;;18.52;59.08;102310.16;4778802;29;119990;-71
2022/09/21 09:08:55;;;;;;;;;;;;;;;18.58;59.05;102314.59;4808209;29;120097;-71
2022/09/21 09:11:26;;;;;;;;;;;;;;;18.63;58.86;102310.44;4810847;29;120885;-71
2022/09/21 09:14:10;;;;;;;;;;;;;;;18.68;58.59;102309.81;4805779;29;121103;-71
2022/09/21 09:16:44;;;;;;;;;;;;;;;18.73;58.35;102311.22;4804717;29;119842;-69
2022/09/21 09:19:16;;;;;;;;;;;;;;;18.76;58.09;102308.25;4808063;29;119727;-71
2022/09/21 09:21:44;;;;;;;;;;;;;;;18.78;57.90;102313.34;4809019;29;121363;-72
2022/09/21 09:24:15;;;;;;;;;;;;;;;18.77;57.61;102309.03;4808173;29;120074;-71
2022/09/21 09:26:43;;;;;;;;;;;;;;;18.77;57.34;102315.38;4805694;29;120171;-70
2022/09/21 09:29:27;;;;;;;;;;;;;;;18.81;57.43;102315.19;4806251;29;121349;-68
2022/09/21 09:31:54;;;;;;;;;;;;;;;18.82;57.52;102311.19;4807032;29;119990;-69
2022/09/21 09:34:23;;;;;;;;;;;;;;;18.85;56.90;102313.78;4807975;29;120457;-69
2022/09/21 09:36:52;;;;;;;;;;;;;;;18.88;56.49;102318.41;4812013;29;120036;-69
2022/09/21 09:39:18;;;;;;;;;;;;;;;18.87;55.88;102318.88;4809997;29;120437;-69
2022/09/21 09:41:47;;;;;;;;;;;;;;;18.86;55.64;102315.31;4805923;29;122564;-69
2022/09/21 09:44:21;;;;;;;;;;;;;;;18.85;55.06;102311.00;4811402;29;120417;-69
2022/09/21 09:46:56;;;;;;;;;;;;;;;18.86;54.98;102315.31;4814210;29;119667;-69
2022/09/21 09:49:21;;;;;;;;;;;;;;;18.89;55.33;102314.38;4805531;29;119813;-68
2022/09/21 09:51:47;;;;;;;;;;;;;;;18.90;55.59;102318.69;4798822;29;119592;-69
2022/09/21 09:54:17;;;;;;;;;;;;;;;18.92;55.36;102319.00;4812165;29;120410;-69
2022/09/21 09:56:43;;;;;;;;;;;;;;;18.96;54.70;102316.84;4807498;29;119760;-69
2022/09/21 09:59:29;;;;;;;;;;;;;;;19.00;54.52;102316.69;4808515;29;119535;-69
2022/09/21 10:02:00;;;;;;;;;;;;;;;19.06;54.80;102319.59;4809787;29;120735;-69
2022/09/21 10:04:25;;;;;;;;;;;;;;;19.09;53.94;102313.06;4808650;29;119876;-69
2022/09/21 10:06:51;;;;;;;;;;;;;;;19.11;53.71;102313.38;4792969;29;120602;-69
2022/09/21 10:09:18;;;;;;;;;;;;;;;19.15;53.77;102317.53;4809960;29;121784;-69
2022/09/21 10:11:50;;;;;;;;;;;;;;;19.18;54.17;102318.63;4806363;29;120125;-69
2022/09/21 10:14:18;;;;;;;;;;;;;;;19.22;53.54;102308.09;4812226;29;119533;-69
2022/09/21 10:16:44;;;;;;;;;;;;;;;19.26;53.39;102308.66;4806719;29;119760;-69
2022/09/21 10:19:39;;;;;;;;;;;;;;;19.32;53.60;102307.53;4785550;29;120165;-69
2022/09/21 10:22:04;;;;;;;;;;;;;;;19.38;53.55;102302.09;4809270;29;121113;-70
2022/09/21 10:24:34;;;;;;;;;;;;;;;19.59;53.51;102312.19;4805750;29;119887;-70
2022/09/21 10:27:05;;;;;;;;;;;;;;;19.75;52.97;102307.47;4808915;29;120533;-69
2022/09/21 10:29:39;;;;;;;24.65;2.47;;;;;;;19.92;54.90;102305.78;4806848;29;119833;-68
2022/09/21 10:32:20;;;;;;;8.52;1.20;;;;;;;20.05;54.13;102295.16;4813883;29;120525;-69
2022/09/21 10:35:06;;;;;;;3.47;1.13;;;;;;;20.21;53.15;102300.28;4803751;29;119999;-69
2022/09/21 10:37:42;;;;;;;17.33;1.73;;;;;;;20.29;53.27;102299.88;4805427;29;120139;-69
2022/09/21 10:40:16;;;;;;;50.08;3.67;;;;;;;20.38;53.15;102302.59;4809682;29;119618;-70
2022/09/21 10:42:43;;;;;;;24.92;1.73;;;;;;;20.44;52.58;102295.13;4810858;29;120049;-70
2022/09/21 10:45:18;;;;;;;25.58;2.08;;;;;;;20.56;52.51;102298.84;4814585;29;120064;-69
2022/09/21 10:47:50;;;;;;;108.38;5.45;;;;;;;20.66;52.33;102294.72;4830870;28;120073;-69
2022/09/21 10:50:27;;;;;;;53.55;3.13;;;;;;;20.77;51.79;102294.91;4818212;29;120228;-70
2022/09/21 10:53:00;;;;;;;70.30;3.63;;;;;;;20.82;51.82;102291.44;4808927;29;120019;-69
2022/09/21 10:55:31;;;;;;;48.13;3.22;;;;;;;20.82;51.81;102295.00;4805512;29;120545;-70
2022/09/21 10:57:57;;;;;;;41.08;3.10;;;;;;;20.86;51.60;102283.66;4815440;29;119745;-69
2022/09/21 11:00:50;;;;;;;21.20;1.85;;;;;;;20.92;51.34;102289.31;4815241;29;119769;-69
2022/09/21 11:03:57;;;;;;;48.40;3.85;;;;;;;20.95;51.06;102285.53;4803775;29;119593;-69
2022/09/21 11:06:25;;;;;;;39.65;3.03;;;;;;;20.97;51.73;102280.25;4828818;29;119653;-70
2022/09/21 11:08:58;;;;;;;98.55;4.75;;;;;;;21.03;52.13;102270.69;4813411;29;120202;-70
2022/09/21 11:11:46;;;;;;;14.27;2.08;;;;;;;21.07;51.07;102282.44;4800770;29;123229;-69
2022/09/21 11:14:20;;;;;;;61.92;4.57;;;;;;;21.00;51.38;102284.84;4807323;29;119899;-69
2022/09/21 11:16:56;;;;;;;67.20;4.78;;;;;;;20.83;50.40;102277.03;4819042;29;120166;-70
2022/09/21 11:19:41;;;;;;;20.63;1.88;;;;;;;20.65;51.68;102282.81;4806207;29;119823;-70
2022/09/21 11:22:44;;;;;;;39.00;2.85;;;;;;;20.48;52.13;102284.53;4814909;29;119900;-70
2022/09/21 11:26:16;;;;;;;42.53;2.90;;;;;;;20.34;52.96;102277.69;4772496;29;119605;-70
2022/09/21 11:29:16;;;;;;;63.47;5.00;;;;;;;20.15;53.28;102279.91;4753914;29;120278;-70
2022/09/21 11:31:58;;;;;;;21.75;2.08;;;;;;;19.98;54.05;102278.81;4750375;29;119963;-70
2022/09/21 11:34:47;;;;;;;41.00;2.65;;;;;;;19.84;54.26;102282.31;4791009;29;121525;-69
2022/09/21 11:37:34;;;;;;;30.60;2.33;;;;;;;19.74;54.25;102283.66;4816193;29;119735;-69
2022/09/21 11:40:22;;;;;;;75.85;4.18;;;;;;;19.60;54.14;102274.78;4815289;29;120307;-70
2022/09/21 11:43:13;;;;;;;34.33;2.38;;;;;;;19.53;54.70;102283.47;4818946;29;120095;-69
2022/09/21 11:45:56;;;;;;;67.30;4.75;;;;;;;19.56;54.76;102279.75;4815203;29;120606;-69
2022/09/21 11:49:46;;;;;;;18.92;2.22;;;;;;;19.65;54.49;102281.72;4734313;29;120221;-69
2022/09/21 11:52:20;;;;;;;16.13;2.00;;;;;;;19.71;54.63;102276.25;4698821;29;119938;-69
2022/09/21 11:54:49;;;;;;;107.10;7.72;;;;;;;19.79;53.07;102280.19;4747769;29;119871;-70
2022/09/21 11:57:21;;;;;;;45.47;3.50;;;;;;;19.77;53.49;102283.47;4788027;29;120856;-70
2022/09/21 11:59:58;;;;;;;52.00;3.88;;;;;;;19.76;54.18;102275.59;4816395;29;119820;-70
2022/09/21 12:02:34;;;;;;;14.98;2.10;;;;;;;19.71;53.81;102276.25;4807574;29;120062;-69
2022/09/21 12:05:22;;;;;;;12.23;1.42;;;;;;;19.70;54.08;102280.28;4815641;29;120038;-69
2022/09/21 12:08:02;;;;;;;46.33;2.88;;;;;;;19.67;54.67;102284.78;4821791;29;119696;-69
2022/09/21 12:10:37;;;;;;;15.00;1.67;;;;;;;19.67;54.75;102278.47;4808540;29;121012;-70
2022/09/21 12:13:03;;;;;;;15.68;1.85;;;;;;;19.67;55.05;102278.47;4814240;29;119890;-68
2022/09/21 12:15:40;;;;;;;29.17;1.98;;;;;;;19.66;53.93;102276.91;4801121;29;121211;-70
2022/09/21 12:18:21;;;;;;;61.97;4.43;;;;;;;19.65;53.48;102275.38;4811246;29;120289;-69
2022/09/21 12:20:49;;;;;;;79.90;4.80;;;;;;;19.63;53.44;102276.59;4814583;29;119925;-69
2022/09/21 12:23:48;;;;;;;19.17;1.58;;;;;;;19.62;54.01;102274.28;4814601;29;122118;-69
2022/09/21 12:26:21;;;;;;;19.65;2.20;;;;;;;19.57;53.77;102269.38;4800398;29;120587;-72
2022/09/21 12:29:01;;;;;;;20.63;1.95;;;;;;;19.51;54.27;102266.47;4816625;29;120089;-70
2022/09/21 12:31:53;;;;;;;14.93;1.77;;;;;;;19.50;53.50;102269.72;4816244;29;119854;-70
2022/09/21 12:34:28;;;;;;;33.33;2.28;;;;;;;19.42;54.05;102266.53;4810373;29;119454;-69
2022/09/21 12:37:26;;;;;;;12.23;1.13;;;;;;;19.39;54.83;102264.69;4812099;29;119934;-72